Time;durP1;ratioP1;P1;durP2;ratioP2;P2;SDS_P1;SDS_P2;PMS_P1;PMS_P2;Temp;Humidity;BMP_temperature;BMP_pressure;BME280_temperature;BME280_humidity;BME280_pressure;Samples;Min_cycle;Max_cycle;Signal;HPM_P1;HPM_P2
2023/03/11 00:00:43;;;;;;;26.00;17.60;;;;;;;5.93;88.05;97778.08;106997;1254;1050802;-73
2023/03/11 00:05:42;;;;;;;23.00;17.30;;;;;;;5.89;87.97;97774.69;107162;1256;1058575;-73
2023/03/11 00:10:38;;;;;;;24.50;16.30;;;;;;;5.85;88.06;97775.08;107126;1259;1073027;-73
2023/03/11 00:15:31;;;;;;;22.50;15.80;;;;;;;5.82;88.05;97771.34;107065;1257;1065101;-73
2023/03/11 00:20:27;;;;;;;21.80;14.50;;;;;;;5.76;87.93;97773.81;107006;1257;1016993;-73
2023/03/11 00:25:22;;;;;;;24.10;14.30;;;;;;;5.72;88.15;97774.54;107066;1259;1051267;-73
2023/03/11 00:30:17;;;;;;;23.80;16.50;;;;;;;5.73;88.13;97763.70;107023;1256;1058250;-73
2023/03/11 00:35:16;;;;;;;21.20;15.20;;;;;;;5.70;88.23;97762.88;107041;1255;1073331;-74
2023/03/11 00:40:17;;;;;;;21.10;15.30;;;;;;;5.63;87.89;97755.04;107111;1255;1065162;-73
2023/03/11 00:45:11;;;;;;;20.80;15.00;;;;;;;5.60;88.12;97752.65;107021;1257;1070277;-73
2023/03/11 00:50:06;;;;;;;23.10;15.10;;;;;;;5.58;88.19;97747.38;107016;1259;1018669;-73
2023/03/11 00:54:59;;;;;;;19.60;13.10;;;;;;;5.53;88.23;97737.96;107081;1256;1060616;-73
2023/03/11 00:59:52;;;;;;;20.60;12.70;;;;;;;5.51;88.54;97739.88;107140;1255;1015889;-73
2023/03/11 01:04:45;;;;;;;19.70;13.30;;;;;;;5.49;88.67;97729.76;107097;1255;1016406;-73
2023/03/11 01:09:38;;;;;;;15.90;11.80;;;;;;;5.42;88.28;97726.56;107013;1256;1016480;-73
2023/03/11 01:14:32;;;;;;;16.50;12.70;;;;;;;5.34;88.46;97721.33;107022;1256;1016115;-73
2023/03/11 01:19:25;;;;;;;17.40;12.60;;;;;;;5.29;88.27;97721.54;107102;1256;1016404;-73
2023/03/11 01:24:19;;;;;;;14.90;11.50;;;;;;;5.20;88.15;97723.34;107113;1259;1016275;-73
2023/03/11 01:29:11;;;;;;;18.50;12.30;;;;;;;5.14;88.27;97716.70;107115;1255;1016895;-73
2023/03/11 01:34:06;;;;;;;19.60;12.90;;;;;;;5.09;88.34;97713.83;107103;1256;1016498;-73
2023/03/11 01:38:59;;;;;;;20.60;12.60;;;;;;;5.04;88.50;97705.65;107039;1256;1016138;-73
2023/03/11 01:43:54;;;;;;;16.40;11.00;;;;;;;4.98;88.33;97708.77;107111;1256;1016617;-73
2023/03/11 01:48:58;;;;;;;15.60;11.20;;;;;;;4.94;88.58;97706.24;107110;1256;1073040;-73
2023/03/11 01:53:56;;;;;;;13.90;10.40;;;;;;;4.89;88.42;97705.77;107110;1256;1065275;-73
2023/03/11 01:58:53;;;;;;;13.10;9.90;;;;;;;4.86;88.75;97702.02;107114;1256;1070565;-73
2023/03/11 02:03:46;;;;;;;13.60;9.90;;;;;;;4.80;88.71;97697.77;107092;1256;1051353;-73
2023/03/11 02:08:41;;;;;;;13.30;9.70;;;;;;;4.76;88.66;97701.25;107162;1256;1016565;-73
2023/03/11 02:13:36;;;;;;;13.20;9.50;;;;;;;4.69;88.60;97689.11;107081;1256;1072430;-73
2023/03/11 02:18:29;;;;;;;12.60;9.20;;;;;;;4.61;88.38;97693.98;107045;1256;1017884;-74
2023/03/11 02:23:30;;;;;;;13.70;9.70;;;;;;;4.51;88.16;97699.38;107011;1256;1070777;-73
2023/03/11 02:28:25;;;;;;;15.50;9.80;;;;;;;4.45;88.29;97697.87;107203;1256;1051110;-73
2023/03/11 02:33:19;;;;;;;12.10;9.30;;;;;;;4.37;87.83;97693.98;107079;1256;1058580;-73
2023/03/11 02:38:13;;;;;;;12.10;9.20;;;;;;;4.29;88.04;97689.06;107214;1256;1016294;-73
2023/03/11 02:43:10;;;;;;;10.00;8.20;;;;;;;4.26;88.23;97684.61;107151;1256;1016567;-73
2023/03/11 02:48:04;;;;;;;13.00;10.00;;;;;;;4.22;88.16;97679.16;107017;1256;1070379;-73
2023/03/11 02:52:57;;;;;;;12.10;9.30;;;;;;;4.19;88.18;97680.04;107064;1256;1016448;-73
2023/03/11 02:57:50;;;;;;;13.30;9.10;;;;;;;4.13;88.04;97683.33;107199;1256;1018043;-73
2023/03/11 03:02:45;;;;;;;10.80;8.80;;;;;;;4.04;87.83;97683.71;107123;1256;1016237;-73
2023/03/11 03:07:39;;;;;;;9.50;7.80;;;;;;;3.95;87.70;97684.11;107052;1256;1064796;-73
2023/03/11 03:12:32;;;;;;;9.80;7.80;;;;;;;3.88;87.73;97683.30;107057;1257;1016541;-73
2023/03/11 03:17:25;;;;;;;9.50;7.20;;;;;;;3.79;87.38;97682.48;107113;1258;1016902;-73
2023/03/11 03:22:18;;;;;;;9.30;8.20;;;;;;;3.70;87.37;97678.91;107096;1255;1016307;-73
2023/03/11 03:27:11;;;;;;;11.60;7.60;;;;;;;3.63;87.56;97684.09;107121;1256;1016624;-73
2023/03/11 03:32:05;;;;;;;11.10;7.80;;;;;;;3.56;87.62;97681.54;107145;1256;1016513;-73
2023/03/11 03:37:02;;;;;;;11.40;7.80;;;;;;;3.49;87.65;97676.08;107196;1256;1015770;-73
2023/03/11 03:41:55;;;;;;;9.00;7.10;;;;;;;3.38;87.14;97675.26;107117;1256;1050805;-73
2023/03/11 03:46:48;;;;;;;11.90;8.60;;;;;;;3.27;87.19;97676.83;107191;1256;1016347;-73
2023/03/11 03:51:42;;;;;;;11.90;8.90;;;;;;;3.22;87.00;97679.25;107087;1256;1016304;-73
2023/03/11 03:56:39;;;;;;;;;;;;;;;3.17;87.00;97675.65;107082;1256;1065235;-73
2023/03/11 04:01:34;;;;;;;11.30;7.50;;;;;;;3.13;87.30;97668.98;106994;1256;1071048;-73
2023/03/11 04:06:28;;;;;;;11.40;7.70;;;;;;;3.05;86.92;97653.42;107086;1256;1016184;-73
2023/03/11 04:11:24;;;;;;;9.60;7.80;;;;;;;2.99;86.54;97645.58;107111;1256;1059020;-72
2023/03/11 04:16:21;;;;;;;8.50;7.00;;;;;;;2.94;86.82;97639.77;107115;1256;1016169;-73
2023/03/11 04:21:15;;;;;;;11.30;8.10;;;;;;;2.96;87.05;97639.94;107041;1256;1065100;-73
2023/03/11 04:26:09;;;;;;;9.40;6.40;;;;;;;2.96;86.74;97637.55;107038;1256;1016258;-73
2023/03/11 04:31:02;;;;;;;7.70;6.40;;;;;;;2.94;87.04;97643.54;107071;1256;1016480;-73
2023/03/11 04:35:56;;;;;;;10.60;7.20;;;;;;;2.96;87.08;97643.86;107101;1259;1016452;-73
2023/03/11 04:40:49;;;;;;;10.50;6.60;;;;;;;2.98;87.07;97639.23;107137;1256;1016432;-73
2023/03/11 04:45:42;;;;;;;10.70;7.30;;;;;;;2.99;87.12;97642.66;107102;1256;1016392;-73
2023/03/11 04:50:36;;;;;;;10.50;7.60;;;;;;;3.02;87.44;97646.24;107155;1256;1018360;-73
2023/03/11 04:55:30;;;;;;;10.00;7.60;;;;;;;3.10;87.34;97647.27;107138;1256;1018137;-73
2023/03/11 05:00:25;;;;;;;10.00;7.60;;;;;;;3.16;87.63;97651.52;107062;1256;1016524;-73
2023/03/11 05:05:27;;;;;;;9.10;7.30;;;;;;;3.20;87.54;97664.87;107139;1256;1072112;-73
2023/03/11 05:10:22;;;;;;;12.30;7.70;;;;;;;3.27;87.63;97663.48;107079;1256;1016558;-73
2023/03/11 05:15:18;;;;;;;;;;;;;;;3.34;87.63;97660.05;107116;1256;1071004;-73
2023/03/11 05:20:13;;;;;;;11.60;8.90;;;;;;;3.45;88.24;97654.69;107006;1256;1051255;-73
2023/03/11 05:25:08;;;;;;;8.70;6.70;;;;;;;3.56;88.23;97646.59;107002;1256;1057585;-73
2023/03/11 05:30:02;;;;;;;13.10;8.70;;;;;;;3.63;88.19;97643.14;106997;1256;1016346;-73
2023/03/11 05:34:56;;;;;;;10.90;9.60;;;;;;;3.72;88.14;97644.82;107125;1256;1016271;-73
2023/03/11 05:39:49;;;;;;;13.40;8.70;;;;;;;3.79;88.26;97646.84;107004;1256;1016423;-73
2023/03/11 05:44:42;;;;;;;12.10;9.60;;;;;;;3.88;88.51;97636.85;107229;1256;1016517;-73
2023/03/11 05:49:36;;;;;;;13.40;10.50;;;;;;;3.96;88.36;97629.08;107201;1256;1015810;-73
2023/03/11 05:54:29;;;;;;;15.80;11.80;;;;;;;4.04;88.34;97633.50;107023;1256;1016312;-73
2023/03/11 05:59:22;;;;;;;14.20;11.70;;;;;;;4.13;88.26;97631.73;107082;1256;1016403;-73
2023/03/11 06:04:20;;;;;;;;;;;;;;;4.23;88.51;97628.75;107082;1256;1071014;-73
2023/03/11 06:09:14;;;;;;;14.80;10.70;;;;;;;4.33;88.50;97632.97;107155;1256;1016349;-73
2023/03/11 06:14:12;;;;;;;15.70;11.80;;;;;;;4.44;88.44;97637.85;107135;1256;1058823;-73
2023/03/11 06:19:05;;;;;;;;;;;;;;;4.57;88.78;97642.89;106993;1256;1072279;-73
2023/03/11 06:24:01;;;;;;;15.70;11.10;;;;;;;4.70;88.66;97643.47;107088;1256;1068491;-73
2023/03/11 06:28:55;;;;;;;14.60;11.00;;;;;;;4.82;88.80;97655.55;107079;1256;1016484;-73
2023/03/11 06:33:48;;;;;;;12.70;10.10;;;;;;;4.97;88.84;97655.07;107103;1259;1016361;-73
2023/03/11 06:38:42;;;;;;;13.00;10.10;;;;;;;5.16;89.24;97656.09;107187;1256;1016471;-73
2023/03/11 06:43:36;;;;;;;14.60;9.80;;;;;;;5.38;89.11;97658.23;106992;1256;1016091;-73
2023/03/11 06:48:29;;;;;;;13.50;10.70;;;;;;;5.59;88.98;97657.83;107161;1256;1065783;-73
2023/03/11 06:53:24;;;;;;;12.00;9.40;;;;;;;5.81;88.73;97661.34;107179;1256;1016647;-73
2023/03/11 06:58:17;;;;;;;11.50;9.40;;;;;;;6.03;88.63;97662.45;107020;1256;1016385;-74
2023/03/11 07:03:10;;;;;;;12.20;8.00;;;;;;;6.31;88.30;97665.52;107046;1256;1016190;-73
2023/03/11 07:08:03;;;;;;;12.50;8.30;;;;;;;6.50;88.03;97665.58;107084;1256;1017838;-73
2023/03/11 07:12:56;;;;;;;13.50;9.70;;;;;;;6.64;87.94;97662.23;107049;1256;1018106;-74
2023/03/11 07:17:49;;;;;;;9.30;7.30;;;;;;;6.77;87.86;97666.16;107098;1256;1015871;-74
2023/03/11 07:22:42;;;;;;;9.10;7.40;;;;;;;6.82;87.51;97669.52;107094;1259;1016174;-73
2023/03/11 07:27:35;;;;;;;9.90;7.80;;;;;;;6.82;87.59;97680.19;107139;1256;1016044;-73
2023/03/11 07:32:28;;;;;;;9.70;7.50;;;;;;;6.82;87.68;97681.55;107169;1256;1016344;-73
2023/03/11 07:37:21;;;;;;;9.30;6.70;;;;;;;6.85;87.69;97689.27;106953;1257;1016439;-74
2023/03/11 07:42:14;;;;;;;10.40;8.20;;;;;;;6.89;87.63;97691.61;107000;1256;1019163;-74
2023/03/11 07:47:07;;;;;;;9.80;7.40;;;;;;;6.96;87.66;97694.08;107061;1259;1016349;-74
2023/03/11 07:52:00;;;;;;;8.90;8.00;;;;;;;7.05;87.62;97694.11;107029;1256;1016278;-74
2023/03/11 07:56:53;;;;;;;8.30;7.00;;;;;;;7.13;87.45;97698.09;107095;1257;1016438;-74
2023/03/11 08:01:47;;;;;;;10.30;8.90;;;;;;;7.17;87.25;97707.16;107164;1257;1016483;-73
2023/03/11 08:06:42;;;;;;;9.80;8.80;;;;;;;7.21;87.13;97705.18;106944;1259;1016515;-73
2023/03/11 08:11:36;;;;;;;9.10;8.20;;;;;;;7.24;87.08;97708.08;107036;1258;1051386;-73
2023/03/11 08:16:30;;;;;;;12.20;10.10;;;;;;;7.23;86.96;97714.45;106916;1259;1015906;-73
2023/03/11 08:21:30;;;;;;;12.40;11.10;;;;;;;7.22;86.83;97721.02;107270;1256;1072595;-73
2023/03/11 08:26:24;;;;;;;11.10;10.00;;;;;;;7.27;86.90;97718.17;107200;1256;1065363;-73
2023/03/11 08:31:29;;;;;;;11.50;10.30;;;;;;;7.34;86.62;97710.81;107120;1257;1015987;-73
2023/03/11 08:36:22;;;;;;;10.80;9.60;;;;;;;7.34;86.51;97722.02;107158;1256;1051086;-73
2023/03/11 08:41:16;;;;;;;9.80;8.80;;;;;;;7.31;86.17;97727.41;107130;1258;1018162;-73
2023/03/11 08:46:15;;;;;;;9.40;8.40;;;;;;;7.32;86.18;97732.21;106963;1257;1016383;-73
2023/03/11 08:51:13;;;;;;;10.20;9.30;;;;;;;7.29;85.84;97734.51;107068;1256;1067343;-73
2023/03/11 08:56:06;;;;;;;12.50;11.30;;;;;;;7.24;85.99;97744.24;107074;1256;1070455;-73
2023/03/11 09:00:59;;;;;;;12.00;10.80;;;;;;;7.22;85.99;97748.75;107554;1259;1015908;-73
2023/03/11 09:06:04;;;;;;;12.50;11.30;;;;;;;7.19;86.00;97755.02;107093;1256;1015930;-73
2023/03/11 09:10:57;;;;;;;11.30;10.10;;;;;;;7.12;85.94;97762.54;107087;1256;1073133;-72
2023/03/11 09:15:51;;;;;;;10.30;9.20;;;;;;;7.08;86.10;97774.15;107144;1256;1016223;-73
2023/03/11 09:20:45;;;;;;;12.20;10.90;;;;;;;7.02;86.11;97778.02;107162;1256;1016343;-73
2023/03/11 09:25:38;;;;;;;14.20;12.70;;;;;;;7.00;86.37;97778.05;107170;1256;1016281;-73
2023/03/11 09:30:31;;;;;;;12.70;11.30;;;;;;;7.00;86.41;97790.62;107104;1256;1016504;-73
2023/03/11 09:35:24;;;;;;;12.30;9.20;;;;;;;7.04;86.57;97795.21;107198;1256;1016377;-73
2023/03/11 09:40:21;;;;;;;13.90;12.60;;;;;;;7.02;86.66;97794.74;107141;1256;1016562;-72
2023/03/11 09:45:21;;;;;;;17.30;14.50;;;;;;;6.98;86.76;97801.15;107123;1256;1070934;-73
2023/03/11 09:50:30;;;;;;;19.60;15.60;;;;;;;6.94;86.88;97806.23;107090;1257;1053888;-74
2023/03/11 09:55:36;;;;;;;17.60;15.70;;;;;;;6.92;86.92;97805.74;106872;1259;1058851;-73
2023/03/11 10:00:29;;;;;;;16.90;14.60;;;;;;;6.87;87.13;97808.89;106929;1259;1072298;-73
2023/03/11 10:05:26;;;;;;;18.60;14.80;;;;;;;6.81;87.32;97815.89;106934;1259;1017121;-73
2023/03/11 10:10:19;;;;;;;18.60;15.10;;;;;;;6.75;87.46;97823.19;106867;1258;1072956;-73
2023/03/11 10:15:33;;;;;;;23.50;17.50;;;;;;;6.72;87.42;97832.87;106862;1257;1016513;-73
2023/03/11 10:20:56;;;;;;;28.80;21.40;;;;;;;6.57;86.78;97847.19;106917;1260;1057969;-72
2023/03/11 10:26:27;;;;;;;33.70;23.90;;;;;;;6.31;85.94;97866.08;106892;1257;1072548;-73
2023/03/11 10:31:49;;;;;;;32.40;23.60;;;;;;;6.03;85.00;97879.79;106893;1257;1065221;-73
2023/03/11 10:36:59;;;;;;;31.80;21.70;;;;;;;5.81;84.88;97908.00;106858;1257;1070732;-73
2023/03/11 10:42:03;;;;;;;35.30;22.00;;;;;;;5.57;84.31;97924.17;106907;1261;1050655;-73
2023/03/11 10:46:56;;;;;;;28.60;19.40;;;;;;;5.30;84.09;97946.36;106901;1258;1060800;-72
2023/03/11 10:51:51;;;;;;;27.70;18.90;;;;;;;5.10;83.98;97957.29;107050;1258;1016265;-73
2023/03/11 10:56:54;;;;;;;26.40;17.40;;;;;;;4.92;83.85;97967.52;106985;1261;1065883;-73
2023/03/11 11:02:03;;;;;;;20.80;15.70;;;;;;;4.74;83.68;97981.98;106910;1259;1071675;-73
2023/03/11 11:06:58;;;;;;;18.90;14.90;;;;;;;4.55;83.78;97994.06;107022;1257;1050505;-73
2023/03/11 11:12:02;;;;;;;18.90;13.60;;;;;;;4.44;83.82;98007.29;107073;1256;1016264;-73
2023/03/11 11:16:55;;;;;;;10.70;9.50;;;;;;;4.32;83.72;98020.86;107023;1260;1072809;-73
2023/03/11 11:21:51;;;;;;;8.80;7.90;;;;;;;4.15;83.38;98034.06;107104;1260;1016463;-72
2023/03/11 11:27:04;;;;;;;7.40;6.50;;;;;;;3.99;83.34;98051.20;107040;1256;1070771;-72
2023/03/11 11:32:15;;;;;;;9.10;7.30;;;;;;;3.77;82.96;98069.02;107063;1258;1050755;-73
2023/03/11 11:37:14;;;;;;;9.90;7.90;;;;;;;3.55;83.28;98085.58;107066;1259;1060473;-72
2023/03/11 11:42:12;;;;;;;7.40;6.70;;;;;;;3.41;82.62;98105.23;106970;1256;1073970;-72
2023/03/11 11:47:17;;;;;;;5.60;5.10;;;;;;;3.35;82.15;98111.37;107138;1256;1066194;-72
2023/03/11 11:52:23;;;;;;;5.80;5.20;;;;;;;3.25;81.08;98133.23;107083;1261;1070503;-73
2023/03/11 11:57:20;;;;;;;5.00;4.60;;;;;;;3.17;80.66;98144.84;107010;1258;1051397;-73
2023/03/11 12:02:17;;;;;;;5.00;4.60;;;;;;;3.13;80.03;98154.58;107039;1256;1057840;-73
2023/03/11 12:07:12;;;;;;;5.80;4.90;;;;;;;3.08;79.98;98169.42;107101;1257;1072346;-72
2023/03/11 12:12:08;;;;;;;5.70;4.60;;;;;;;3.05;79.81;98189.79;107022;1261;1065069;-72
2023/03/11 12:17:06;;;;;;;5.00;4.40;;;;;;;2.96;79.17;98200.84;107027;1260;1070796;-72
2023/03/11 12:22:27;;;;;;;5.20;4.70;;;;;;;2.92;79.56;98208.67;107049;1257;1050610;-72
2023/03/11 12:28:05;;;;;;;5.30;4.60;;;;;;;2.81;79.68;98220.23;107062;1258;1058728;-73
2023/03/11 12:33:05;;;;;;;6.40;5.80;;;;;;;2.76;80.19;98237.83;106487;1267;1072976;-73
2023/03/11 12:38:13;;;;;;;5.30;4.70;;;;;;;2.74;80.41;98252.17;106421;1268;1067640;-73
2023/03/11 12:43:22;;;;;;;;;;;;;;;2.68;80.22;98268.38;106466;1266;1070376;-73
2023/03/11 12:48:27;;;;;;;6.10;5.30;;;;;;;2.66;80.11;98278.63;106524;1269;1050181;-72
2023/03/11 12:53:20;;;;;;;5.80;5.10;;;;;;;2.64;80.48;98295.52;106518;1267;1058046;-72
2023/03/11 12:58:53;;;;;;;6.00;4.40;;;;;;;2.52;80.57;98308.58;106436;1265;1016511;-72
2023/03/11 13:03:57;;;;;;;15.90;9.20;;;;;;;2.36;80.54;98328.41;106479;1267;1065104;-72
2023/03/11 13:08:54;;;;;;;7.70;5.60;;;;;;;2.25;80.72;98344.52;106779;1257;1070538;-72
2023/03/11 13:13:47;;;;;;;14.60;8.20;;;;;;;2.17;80.89;98354.67;107168;1257;1049916;-72
2023/03/11 13:18:42;;;;;;;14.90;9.50;;;;;;;2.10;80.69;98369.27;106926;1263;1016332;-72
2023/03/11 13:23:39;;;;;;;9.70;7.00;;;;;;;2.04;80.80;98379.45;106948;1257;1073062;-72
2023/03/11 13:28:53;;;;;;;6.60;5.40;;;;;;;2.02;80.85;98390.70;107021;1257;1065793;-72
2023/03/11 13:33:52;;;;;;;6.50;5.40;;;;;;;2.07;81.05;98405.13;107129;1257;1070840;-72
2023/03/11 13:39:04;;;;;;;7.10;5.70;;;;;;;2.03;80.42;98416.35;107070;1263;1050659;-72
2023/03/11 13:44:04;;;;;;;8.00;6.80;;;;;;;2.02;80.26;98436.49;107043;1257;1058710;-72
2023/03/11 13:49:10;;;;;;;7.00;6.00;;;;;;;1.99;80.54;98448.92;107125;1258;1073530;-71
2023/03/11 13:54:16;;;;;;;7.20;6.50;;;;;;;1.96;80.36;98469.71;106963;1257;1065309;-72
2023/03/11 13:59:27;;;;;;;7.50;6.30;;;;;;;2.00;80.23;98489.44;107078;1257;1073368;-72
2023/03/11 14:04:26;;;;;;;8.60;5.60;;;;;;;2.00;80.27;98504.15;107090;1260;1050934;-72
2023/03/11 14:09:22;;;;;;;12.90;8.50;;;;;;;1.91;80.43;98519.89;106989;1257;1057905;-72
2023/03/11 14:14:35;;;;;;;7.80;6.40;;;;;;;1.81;80.79;98537.13;107071;1257;1071577;-72
2023/03/11 14:19:28;;;;;;;7.20;6.20;;;;;;;1.83;80.68;98557.84;106943;1257;1065475;-72
2023/03/11 14:24:31;;;;;;;7.20;6.50;;;;;;;1.84;80.44;98570.84;106973;1257;1119051;-71
2023/03/11 14:29:35;;;;;;;7.10;5.80;;;;;;;1.74;80.61;98584.52;107077;1257;1050705;-72
2023/03/11 14:34:30;;;;;;;7.60;6.20;;;;;;;1.62;80.64;98597.95;107045;1257;1058168;-72
2023/03/11 14:39:23;;;;;;;9.30;7.20;;;;;;;1.44;80.38;98607.17;107045;1257;1072836;-72
2023/03/11 14:44:16;;;;;;;10.00;7.70;;;;;;;1.28;80.44;98618.95;107022;1257;1016486;-72
2023/03/11 14:49:18;;;;;;;10.90;7.90;;;;;;;1.20;80.86;98629.04;106972;1257;1016431;-72
2023/03/11 14:54:21;;;;;;;7.60;4.90;;;;;;;1.20;81.04;98635.02;106896;1257;1050782;-72
2023/03/11 14:59:21;;;;;;;6.40;4.90;;;;;;;1.16;80.26;98656.95;107083;1260;1058148;-73
2023/03/11 15:04:36;;;;;;;7.60;5.60;;;;;;;1.14;80.07;98664.94;107036;1257;1073733;-72
2023/03/11 15:09:31;;;;;;;14.10;8.60;;;;;;;1.18;79.70;98680.54;106980;1257;1064947;-72
2023/03/11 15:14:24;;;;;;;6.50;4.50;;;;;;;1.19;78.61;98692.17;106993;1259;1016352;-72
2023/03/11 15:19:29;;;;;;;5.20;4.10;;;;;;;1.18;78.66;98697.61;107015;1257;1016269;-72
2023/03/11 15:24:25;;;;;;;6.00;3.60;;;;;;;1.17;78.48;98715.50;107041;1257;1058865;-72
2023/03/11 15:29:20;;;;;;;;;;;;;;;1.18;78.61;98721.84;107070;1257;1075025;-72
2023/03/11 15:34:19;;;;;;;17.30;7.70;;;;;;;1.18;78.10;98735.16;107123;1257;1016286;-72
2023/03/11 15:39:17;;;;;;;6.00;4.00;;;;;;;1.17;77.94;98744.52;107007;1256;1069653;-73
2023/03/11 15:44:33;;;;;;;4.60;3.80;;;;;;;1.16;77.49;98753.02;107064;1257;1051562;-72
2023/03/11 15:49:26;;;;;;;7.70;4.80;;;;;;;1.14;77.78;98765.44;106989;1256;1058405;-72
2023/03/11 15:54:19;;;;;;;6.30;3.70;;;;;;;1.09;77.07;98776.26;107051;1256;1016127;-72
2023/03/11 15:59:15;;;;;;;4.60;3.30;;;;;;;1.05;76.69;98788.78;107065;1257;1015954;-73
2023/03/11 16:04:14;;;;;;;4.50;3.70;;;;;;;1.04;76.60;98801.53;107011;1257;1071472;-73
2023/03/11 16:09:08;;;;;;;5.30;3.30;;;;;;;1.03;76.49;98814.33;107010;1256;1051149;-74
2023/03/11 16:14:02;;;;;;;5.60;3.10;;;;;;;1.04;76.17;98825.95;107005;1256;1016339;-74
2023/03/11 16:18:55;;;;;;;6.40;3.40;;;;;;;1.04;76.31;98835.48;107082;1257;1016509;-74
2023/03/11 16:23:48;;;;;;;5.10;4.00;;;;;;;1.01;75.86;98855.73;107044;1256;1016492;-72
2023/03/11 16:28:44;;;;;;;4.00;3.10;;;;;;;0.97;75.86;98858.88;107016;1257;1071180;-72
2023/03/11 16:33:37;;;;;;;4.20;3.80;;;;;;;0.95;75.82;98875.87;107066;1256;1016077;-72
2023/03/11 16:38:31;;;;;;;6.20;4.30;;;;;;;0.93;75.61;98887.42;107021;1257;1015920;-72
2023/03/11 16:43:24;;;;;;;6.00;3.80;;;;;;;0.91;75.44;98903.93;107037;1257;1016340;-72
2023/03/11 16:48:17;;;;;;;4.80;3.90;;;;;;;0.89;75.27;98913.94;107045;1257;1016278;-72
2023/03/11 16:53:10;;;;;;;7.80;3.90;;;;;;;0.89;75.28;98920.92;106943;1256;1016380;-72
2023/03/11 16:58:03;;;;;;;5.20;3.90;;;;;;;0.87;75.04;98934.70;107013;1256;1016473;-72
2023/03/11 17:02:56;;;;;;;8.50;5.50;;;;;;;0.84;74.87;98949.95;106982;1257;1016458;-72
2023/03/11 17:07:53;;;;;;;8.60;4.80;;;;;;;0.85;75.19;98969.09;107003;1256;1016423;-72
2023/03/11 17:12:46;;;;;;;5.70;3.70;;;;;;;0.85;74.81;98974.72;107055;1258;1064971;-72
2023/03/11 17:17:39;;;;;;;8.20;4.00;;;;;;;0.84;74.91;98983.55;106992;1260;1016460;-72
2023/03/11 17:22:32;;;;;;;9.00;3.10;;;;;;;0.81;74.40;98998.66;107018;1260;1018876;-72
2023/03/11 17:27:25;;;;;;;6.40;4.60;;;;;;;0.77;74.45;99010.83;106949;1258;1018061;-72
2023/03/11 17:32:18;;;;;;;5.00;4.20;;;;;;;0.76;74.69;99022.58;106986;1256;1016478;-72
2023/03/11 17:37:13;;;;;;;5.70;4.30;;;;;;;0.76;74.91;99034.70;107074;1256;1016576;-72
2023/03/11 17:42:06;;;;;;;5.40;4.40;;;;;;;0.72;74.96;99031.68;107025;1258;1016034;-72
2023/03/11 17:46:59;;;;;;;6.00;4.30;;;;;;;0.70;74.82;99045.25;107042;1260;1016061;-72
2023/03/11 17:51:52;;;;;;;9.50;5.10;;;;;;;0.70;75.19;99053.95;107041;1256;1016921;-72
2023/03/11 17:56:45;;;;;;;8.10;5.10;;;;;;;0.71;75.35;99062.33;107027;1256;1016902;-72
2023/03/11 18:01:39;;;;;;;5.90;4.10;;;;;;;0.69;75.08;99065.36;107061;1257;1018199;-72
2023/03/11 18:06:31;;;;;;;7.70;4.90;;;;;;;0.67;74.78;99070.91;107034;1256;1016199;-72
2023/03/11 18:11:27;;;;;;;6.70;4.30;;;;;;;0.66;74.88;99084.35;107095;1257;1016453;-72
2023/03/11 18:16:26;;;;;;;6.70;4.40;;;;;;;0.65;74.92;99089.77;107153;1257;1061141;-72
2023/03/11 18:21:25;;;;;;;5.60;4.00;;;;;;;0.64;75.11;99103.23;106991;1257;1072797;-72
2023/03/11 18:26:18;;;;;;;6.20;4.50;;;;;;;0.59;74.88;99109.20;107014;1257;1066180;-72
2023/03/11 18:31:16;;;;;;;6.20;4.50;;;;;;;0.54;74.90;99129.16;106962;1256;1016308;-72
2023/03/11 18:36:13;;;;;;;5.70;4.20;;;;;;;0.52;74.90;99129.27;106975;1260;1051347;-72
2023/03/11 18:41:06;;;;;;;6.30;3.50;;;;;;;0.52;75.26;99142.38;107015;1257;1061527;-72
2023/03/11 18:46:00;;;;;;;8.90;4.70;;;;;;;0.50;74.94;99151.72;106975;1256;1016233;-72
2023/03/11 18:50:55;;;;;;;5.00;3.70;;;;;;;0.44;74.74;99157.15;107055;1257;1018447;-72
2023/03/11 18:55:48;;;;;;;5.90;3.90;;;;;;;0.34;74.47;99164.16;106980;1257;1073870;-72
2023/03/11 19:00:41;;;;;;;4.40;3.60;;;;;;;0.26;74.68;99180.58;106945;1260;1016472;-73
2023/03/11 19:05:34;;;;;;;7.00;3.70;;;;;;;0.19;74.45;99190.25;106999;1257;1017302;-72
2023/03/11 19:10:27;;;;;;;6.70;3.50;;;;;;;0.13;74.25;99201.97;106961;1256;1016517;-72
2023/03/11 19:15:21;;;;;;;5.20;3.70;;;;;;;0.07;74.30;99208.06;107033;1256;1015752;-72
2023/03/11 19:20:14;;;;;;;5.30;3.30;;;;;;;-0.00;74.02;99218.73;106994;1256;1070684;-72
2023/03/11 19:25:08;;;;;;;5.70;2.80;;;;;;;-0.03;74.23;99229.20;107013;1256;1016666;-72
2023/03/11 19:30:00;;;;;;;6.30;3.10;;;;;;;-0.05;74.19;99236.79;107076;1256;1015745;-73
2023/03/11 19:34:53;;;;;;;4.60;3.50;;;;;;;-0.10;74.00;99245.63;107085;1256;1016219;-72
2023/03/11 19:39:46;;;;;;;6.50;3.70;;;;;;;-0.15;73.91;99255.83;107022;1257;1015887;-72
2023/03/11 19:44:39;;;;;;;8.00;3.50;;;;;;;-0.22;74.05;99264.29;107012;1256;1017299;-72
2023/03/11 19:49:32;;;;;;;5.90;2.80;;;;;;;-0.26;73.98;99273.80;106997;1258;1016395;-72
2023/03/11 19:54:25;;;;;;;4.70;2.80;;;;;;;-0.31;73.84;99282.33;107027;1257;1018957;-72
2023/03/11 19:59:17;;;;;;;8.00;4.20;;;;;;;-0.35;73.85;99292.05;106936;1257;1017009;-72
2023/03/11 20:04:11;;;;;;;5.60;2.60;;;;;;;-0.42;73.97;99296.08;107021;1256;1016488;-72
2023/03/11 20:09:05;;;;;;;4.10;2.60;;;;;;;-0.45;74.04;99307.71;106998;1257;1016464;-72
2023/03/11 20:13:58;;;;;;;7.40;3.50;;;;;;;-0.48;73.91;99311.31;106847;1256;1016432;-72
2023/03/11 20:18:51;;;;;;;3.70;2.80;;;;;;;-0.51;73.75;99314.10;106954;1256;1016052;-72
2023/03/11 20:23:44;;;;;;;3.80;2.20;;;;;;;-0.53;73.42;99319.96;106951;1256;1016860;-72
2023/03/11 20:28:38;;;;;;;4.80;2.60;;;;;;;-0.56;73.64;99327.69;106876;1256;1016404;-72
2023/03/11 20:33:31;;;;;;;4.40;3.60;;;;;;;-0.60;73.46;99336.18;106952;1257;1019012;-72
2023/03/11 20:38:24;;;;;;;3.80;3.20;;;;;;;-0.64;73.69;99340.50;106991;1257;1016394;-73
2023/03/11 20:43:17;;;;;;;4.70;2.80;;;;;;;-0.67;73.69;99338.98;106952;1256;1019421;-73
2023/03/11 20:48:11;;;;;;;7.20;4.20;;;;;;;-0.70;73.83;99342.61;106958;1256;1017673;-72
2023/03/11 20:53:05;;;;;;;7.20;4.70;;;;;;;-0.72;73.83;99357.14;106905;1260;1015688;-72
2023/03/11 20:57:58;;;;;;;7.30;4.60;;;;;;;-0.76;73.77;99364.50;106931;1256;1016472;-73
2023/03/11 21:02:51;;;;;;;9.50;3.70;;;;;;;-0.82;73.94;99366.14;106932;1256;1016278;-73
2023/03/11 21:07:44;;;;;;;6.20;3.10;;;;;;;-0.84;73.82;99372.70;106943;1256;1018413;-73
2023/03/11 21:12:38;;;;;;;6.30;3.80;;;;;;;-0.88;74.14;99375.59;106937;1256;1016250;-73
2023/03/11 21:17:31;;;;;;;5.50;2.30;;;;;;;-0.90;74.24;99379.92;107142;1256;1016366;-74
2023/03/11 21:22:24;;;;;;;8.60;5.40;;;;;;;-0.91;74.22;99377.48;106985;1256;1016438;-73
2023/03/11 21:27:19;;;;;;;10.60;3.80;;;;;;;-0.90;74.38;99383.69;106977;1256;1016309;-73
2023/03/11 21:32:12;;;;;;;4.60;3.20;;;;;;;-0.83;74.38;99385.52;106989;1257;1058424;-72
2023/03/11 21:37:05;;;;;;;7.20;4.10;;;;;;;-0.77;74.41;99391.36;107007;1256;1016449;-72
2023/03/11 21:41:59;;;;;;;8.20;5.00;;;;;;;-0.76;74.42;99390.73;107011;1256;1016393;-72
2023/03/11 21:46:52;;;;;;;8.40;5.60;;;;;;;-0.73;74.58;99397.30;106922;1256;1016175;-72
2023/03/11 21:51:46;;;;;;;11.50;6.70;;;;;;;-0.71;74.52;99404.02;106999;1256;1016097;-72
2023/03/11 21:56:39;;;;;;;6.40;4.20;;;;;;;-0.70;74.68;99411.21;106887;1257;1016508;-71
2023/03/11 22:01:33;;;;;;;6.30;4.10;;;;;;;-0.70;74.66;99414.27;106963;1256;1016432;-73
2023/03/11 22:06:29;;;;;;;8.80;4.70;;;;;;;-0.73;74.96;99419.06;106950;1258;1016378;-72
2023/03/11 22:11:23;;;;;;;7.90;4.90;;;;;;;-0.75;74.87;99423.75;106937;1257;1071016;-72
2023/03/11 22:16:15;;;;;;;6.50;3.70;;;;;;;-0.79;75.04;99428.03;106942;1257;1018255;-72
2023/03/11 22:21:09;;;;;;;6.90;4.10;;;;;;;-0.79;75.12;99430.41;107053;1256;1016619;-72
2023/03/11 22:26:03;;;;;;;6.90;5.00;;;;;;;-0.80;75.17;99433.46;107065;1256;1016491;-72
2023/03/11 22:30:55;;;;;;;6.00;4.70;;;;;;;-0.79;75.33;99439.63;107099;1256;1017019;-72